createdAt,value
2022-11-13T00:01:25.531Z,98798.44
2022-11-13T00:03:53.977Z,98793.16
2022-11-13T00:06:23.908Z,98792.50
2022-11-13T00:08:55.917Z,98786.50
2022-11-13T00:11:24.278Z,98783.00
2022-11-13T00:13:52.602Z,98786.59
2022-11-13T00:16:22.985Z,98770.88
2022-11-13T00:18:51.370Z,98763.06
2022-11-13T00:21:23.274Z,98774.53
2022-11-13T00:23:53.180Z,98763.25
2022-11-13T00:26:24.001Z,98761.63
2022-11-13T00:28:55.530Z,98755.63
2022-11-13T00:31:24.371Z,98760.81
2022-11-13T00:36:41.655Z,98739.94
2022-11-13T00:39:12.003Z,98740.84
2022-11-13T00:41:40.456Z,98738.22
2022-11-13T00:44:09.040Z,98732.94
2022-11-13T00:46:37.345Z,98732.22
2022-11-13T00:49:05.951Z,98732.31
2022-11-13T00:51:34.431Z,98727.97
2022-11-13T00:54:02.701Z,98729.00
2022-11-13T00:56:32.460Z,98733.75
2022-11-13T00:59:00.783Z,98732.13
2022-11-13T01:01:29.202Z,98724.41
2022-11-13T01:03:57.905Z,98730.63
2022-11-13T01:06:28.156Z,98727.31
2022-11-13T01:08:59.698Z,98722.16
2022-11-13T01:11:31.840Z,98716.25
2022-11-13T01:14:00.223Z,98719.06
2022-11-13T01:16:29.886Z,98705.06
2022-11-13T01:18:58.666Z,98704.97
2022-11-13T01:21:28.631Z,98705.91
2022-11-13T01:23:57.097Z,98699.78
2022-11-13T01:26:27.733Z,98694.63
2022-11-13T01:28:59.648Z,98687.66
2022-11-13T01:31:31.147Z,98685.03
2022-11-13T01:34:00.225Z,98688.59
2022-11-13T01:36:30.634Z,98684.19
2022-11-13T01:38:59.595Z,98686.91
2022-11-13T01:41:32.195Z,98672.88
2022-11-13T01:44:02.682Z,98676.47
2022-11-13T01:46:34.294Z,98669.44
2022-11-13T01:49:28.930Z,98665.94
2022-11-13T01:52:00.689Z,98665.09
2022-11-13T01:54:34.829Z,98658.13
2022-11-13T01:57:05.215Z,98659.81
2022-11-13T01:59:39.741Z,98650.44
2022-11-13T02:02:08.963Z,98652.88
2022-11-13T02:04:37.868Z,98654.75
2022-11-13T02:07:11.378Z,98657.47
2022-11-13T02:09:42.625Z,98649.66
2022-11-13T02:12:14.697Z,98651.56
2022-11-13T02:14:47.708Z,98653.44
2022-11-13T02:17:20.989Z,98645.53
2022-11-13T02:19:54.055Z,98636.78
2022-11-13T02:22:30.355Z,98634.34
2022-11-13T02:25:01.390Z,98636.25
2022-11-13T02:27:35.596Z,98628.63
2022-11-13T02:30:16.477Z,98621.03
2022-11-13T02:32:46.399Z,98616.25
2022-11-13T02:35:17.269Z,98616.44
2022-11-13T02:37:45.512Z,98614.09
2022-11-13T02:40:15.589Z,98628.19
2022-11-13T02:42:43.994Z,98616.91
2022-11-13T02:45:12.477Z,98612.69
2022-11-13T02:47:40.796Z,98606.56
2022-11-13T02:50:10.942Z,98610.34
2022-11-13T02:52:39.296Z,98608.72
2022-11-13T02:55:08.898Z,98598.38
2022-11-13T02:57:38.490Z,98601.19
2022-11-13T03:00:13.544Z,98592.75
2022-11-13T03:02:42.489Z,98596.31
2022-11-13T03:05:13.231Z,98592.84
2022-11-13T03:07:42.670Z,98587.78
2022-11-13T03:10:12.381Z,98587.09
2022-11-13T03:12:42.436Z,98580.16
2022-11-13T03:15:11.992Z,98589.00
2022-11-13T03:17:40.276Z,98592.56
2022-11-13T03:20:09.558Z,98589.28
2022-11-13T03:22:37.788Z,98589.38
2022-11-13T03:25:10.697Z,98580.81
2022-11-13T03:27:40.808Z,98583.44
2022-11-13T03:30:11.293Z,98580.97
2022-11-13T03:32:39.612Z,98581.06
2022-11-13T03:35:09.016Z,98569.50
2022-11-13T03:37:37.316Z,98564.25
2022-11-13T03:40:06.856Z,98570.34
2022-11-13T03:42:35.331Z,98566.88
2022-11-13T03:47:33.398Z,98563.69
2022-11-13T03:50:01.622Z,98563.88
2022-11-13T03:52:29.893Z,98562.25
2022-11-13T03:54:58.157Z,98563.31
2022-11-13T03:57:26.432Z,98556.53
2022-11-13T03:59:54.717Z,98550.63
2022-11-13T04:02:22.956Z,98549.75
2022-11-13T04:04:52.582Z,98544.59
2022-11-13T04:07:21.001Z,98547.22
2022-11-13T04:09:49.241Z,98544.69
2022-11-13T04:12:17.507Z,98542.06
2022-11-13T04:14:45.773Z,98536.06
2022-11-13T04:17:14.046Z,98535.22
2022-11-13T04:19:42.297Z,98530.81
2022-11-13T04:22:11.944Z,98529.13
2022-11-13T04:24:40.209Z,98530.03
2022-11-13T04:27:08.502Z,98532.69
2022-11-13T04:29:36.720Z,98532.59
2022-11-13T04:32:05.255Z,98530.22
2022-11-13T04:34:33.572Z,98531.28
2022-11-13T04:37:02.085Z,98524.44
2022-11-13T04:39:32.066Z,98520.09
2022-11-13T04:42:17.972Z,98522.91
2022-11-13T04:44:46.258Z,98529.38
2022-11-13T04:47:15.089Z,98519.91
2022-11-13T04:49:43.497Z,98518.28
2022-11-13T04:52:11.747Z,98520.25
2022-11-13T04:54:42.150Z,98517.91
2022-11-13T04:57:10.468Z,98518.00
2022-11-13T04:59:38.728Z,98509.44
2022-11-13T05:02:07.053Z,98501.66
2022-11-13T05:04:35.378Z,98518.34
2022-11-13T05:07:03.786Z,98506.31
2022-11-13T05:09:32.075Z,98502.78
2022-11-13T05:12:01.695Z,98497.63
2022-11-13T05:14:29.921Z,98491.59
2022-11-13T05:16:58.653Z,98493.38
2022-11-13T05:19:26.905Z,98485.59
2022-11-13T05:21:55.187Z,98490.00
2022-11-13T05:24:23.462Z,98480.44
2022-11-13T05:26:52.178Z,98478.72
2022-11-13T05:29:22.059Z,98489.25
2022-11-13T05:31:50.387Z,98476.19
2022-11-13T05:34:18.765Z,98475.28
2022-11-13T05:36:47.026Z,98469.19
2022-11-13T05:39:15.455Z,98457.81
2022-11-13T05:41:43.757Z,98467.41
2022-11-13T05:44:12.248Z,98462.16
2022-11-13T05:46:41.961Z,98464.69
2022-11-13T05:49:11.825Z,98463.75
2022-11-13T05:51:40.133Z,98457.63
2022-11-13T05:54:08.480Z,98455.88
2022-11-13T05:56:38.004Z,98456.59
2022-11-13T05:59:07.161Z,98451.34
2022-11-13T06:01:38.308Z,98445.28
2022-11-13T06:04:09.367Z,98445.91
2022-11-13T06:06:37.763Z,98440.56
2022-11-13T06:09:07.284Z,98437.84
2022-11-13T06:11:35.573Z,98437.13
2022-11-13T06:14:03.860Z,98436.84
2022-11-13T06:16:36.745Z,98428.78
2022-11-13T06:19:09.307Z,98423.44
2022-11-13T06:21:40.490Z,98418.91
2022-11-13T06:24:11.175Z,98412.66
2022-11-13T06:26:39.750Z,98409.84
2022-11-13T06:29:12.553Z,98403.63
2022-11-13T06:31:41.218Z,98412.19
2022-11-13T06:34:10.899Z,98398.09
2022-11-13T06:36:39.236Z,98394.44
2022-11-13T06:39:08.948Z,98391.72
2022-11-13T06:41:39.755Z,98395.97
2022-11-13T06:44:08.106Z,98374.00
2022-11-13T06:46:36.303Z,98386.94
2022-11-13T06:49:04.638Z,98383.34
2022-11-13T06:51:34.349Z,98383.25
2022-11-13T06:54:02.649Z,98387.59
2022-11-13T06:56:30.965Z,98372.47
2022-11-13T06:58:59.207Z,98367.22
2022-11-13T07:01:28.513Z,98363.56
2022-11-13T07:03:57.334Z,98359.03
2022-11-13T07:06:26.527Z,98371.22
2022-11-13T07:08:56.189Z,98364.09
2022-11-13T07:11:25.236Z,98360.53
2022-11-13T07:13:53.768Z,98361.47
2022-11-13T07:16:22.046Z,98369.25
2022-11-13T07:18:54.583Z,98378.81
2022-11-13T07:21:23.962Z,98381.25
2022-11-13T07:23:52.521Z,98395.25
2022-11-13T07:26:22.209Z,98372.38
2022-11-13T07:28:51.345Z,98383.69
2022-11-13T07:31:20.829Z,98367.94
2022-11-13T07:33:51.493Z,98377.34
2022-11-13T07:36:20.132Z,98383.31
2022-11-13T07:38:48.421Z,98373.66
2022-11-13T07:41:16.726Z,98373.16
2022-11-13T07:43:46.492Z,98372.41
2022-11-13T07:46:14.798Z,98371.03
2022-11-13T07:48:43.137Z,98367.34
2022-11-13T07:51:11.500Z,98368.13
2022-11-13T07:53:40.076Z,98368.13
2022-11-13T07:56:09.319Z,98372.41
2022-11-13T07:58:37.739Z,98376.72
2022-11-13T08:01:08.140Z,98370.44
2022-11-13T08:03:37.257Z,98363.38
2022-11-13T08:06:08.230Z,98364.16
2022-11-13T08:08:37.104Z,98370.44
2022-11-13T08:11:06.857Z,98366.88
2022-11-13T08:13:35.537Z,98363.28
2022-11-13T08:16:06.338Z,98349.31
2022-11-13T08:18:34.947Z,98350.88
2022-11-13T08:21:07.108Z,98335.00
2022-11-13T08:23:38.810Z,98341.00
2022-11-13T08:26:08.011Z,98339.97
2022-11-13T08:28:37.532Z,98334.41
2022-11-13T08:31:12.420Z,98333.47
2022-11-13T08:33:41.001Z,98330.53
2022-11-13T08:36:10.918Z,98342.72
2022-11-13T08:38:39.336Z,98333.81
2022-11-13T08:41:09.672Z,98328.34
2022-11-13T08:43:38.257Z,98326.25
2022-11-13T08:46:08.420Z,98336.66
2022-11-13T08:48:37.737Z,98340.91
2022-11-13T08:51:06.534Z,98343.44
2022-11-13T08:53:34.792Z,98347.63
2022-11-13T08:56:03.148Z,98338.78
2022-11-13T08:58:31.832Z,98350.91
2022-11-13T09:01:04.653Z,98336.91
2022-11-13T09:03:36.227Z,98348.19
2022-11-13T09:06:07.548Z,98332.28
2022-11-13T09:08:36.322Z,98338.19
2022-11-13T09:11:06.221Z,98334.50
2022-11-13T09:13:41.162Z,98338.63
2022-11-13T09:16:12.242Z,98334.72
2022-11-13T09:18:41.970Z,98339.88
2022-11-13T09:21:11.106Z,98335.16
2022-11-13T09:23:39.439Z,98331.47
2022-11-13T09:26:07.712Z,98340.03
2022-11-13T09:28:36.669Z,98344.31
2022-11-13T09:31:06.401Z,98340.72
2022-11-13T09:33:34.918Z,98337.91
2022-11-13T09:36:11.653Z,98328.22
2022-11-13T09:38:40.017Z,98333.16
2022-11-13T09:41:12.175Z,98328.53
2022-11-13T09:43:44.965Z,98324.97
2022-11-13T09:46:22.006Z,98319.69
2022-11-13T09:48:55.613Z,98324.75
2022-11-13T09:51:29.600Z,98315.69
2022-11-13T09:53:59.098Z,98298.81
2022-11-13T09:56:33.451Z,98299.56
2022-11-13T09:59:09.191Z,98297.56
2022-11-13T10:01:50.620Z,98283.22
2022-11-13T10:04:27.799Z,98277.53
2022-11-13T10:07:15.540Z,98264.25
2022-11-13T10:09:58.583Z,98259.59
2022-11-13T10:12:29.511Z,98259.19
2022-11-13T10:15:02.816Z,98258.00
2022-11-13T10:17:39.333Z,98241.13
2022-11-13T10:20:15.340Z,98230.25
2022-11-13T10:22:51.982Z,98228.25
2022-11-13T10:25:23.213Z,98218.34
2022-11-13T10:27:57.778Z,98223.00
2022-11-13T10:30:26.672Z,98215.41
2022-11-13T10:32:54.989Z,98202.41
2022-11-13T10:35:45.992Z,98201.88
2022-11-13T10:38:26.452Z,98202.00
2022-11-13T10:41:05.634Z,98203.47
2022-11-13T10:43:34.866Z,98199.41
2022-11-13T10:46:06.382Z,98194.38
2022-11-13T10:48:37.234Z,98197.31
2022-11-13T10:51:25.327Z,98190.47
2022-11-13T10:53:55.635Z,98182.84
2022-11-13T10:56:29.798Z,98175.03
2022-11-13T10:59:03.993Z,98174.44
2022-11-13T11:01:32.590Z,98171.22
2022-11-13T11:04:00.850Z,98166.31
2022-11-13T11:07:12.705Z,98163.81
2022-11-13T11:09:29.880Z,98162.84
2022-11-13T11:12:17.213Z,98151.38
2022-11-13T11:15:12.570Z,98145.13
2022-11-13T11:17:48.130Z,98139.97
2022-11-13T11:20:27.056Z,98129.38
2022-11-13T11:23:03.655Z,98124.31
2022-11-13T11:25:41.772Z,98110.81
2022-11-13T11:28:24.647Z,98127.22
2022-11-13T11:31:00.972Z,98121.63
2022-11-13T11:33:35.479Z,98113.50
2022-11-13T11:36:16.092Z,98110.53
2022-11-13T11:38:52.381Z,98094.56
2022-11-13T11:41:35.481Z,98096.16
2022-11-13T11:44:15.149Z,98092.75
2022-11-13T11:46:46.691Z,98082.19
2022-11-13T11:49:15.362Z,98072.63
2022-11-13T11:51:57.772Z,98066.50
2022-11-13T11:54:42.172Z,98068.53
2022-11-13T11:57:29.778Z,98061.69
2022-11-13T12:00:07.429Z,98054.88
2022-11-13T12:02:59.431Z,98054.19
2022-11-13T12:05:31.617Z,98053.50
2022-11-13T12:08:11.781Z,98048.50
2022-11-13T12:10:47.852Z,98039.03
2022-11-13T12:13:29.295Z,98041.97
2022-11-13T12:16:06.337Z,98029.97
2022-11-13T12:18:48.959Z,98025.22
2022-11-13T12:21:24.948Z,98021.16
2022-11-13T12:24:29.777Z,98015.59
2022-11-13T12:27:11.014Z,98009.03
2022-11-13T12:30:01.844Z,98005.00
2022-11-13T12:32:45.910Z,98002.59
2022-11-13T12:35:19.817Z,97993.78
2022-11-13T12:38:00.484Z,97989.44
2022-11-13T12:40:41.252Z,97985.91
2022-11-13T12:43:35.177Z,97971.94
2022-11-13T12:46:09.976Z,97969.28
2022-11-13T12:48:40.757Z,97966.59
2022-11-13T12:51:11.956Z,97967.69
2022-11-13T12:53:49.942Z,97962.59
2022-11-13T12:56:32.871Z,97958.56
2022-11-13T13:02:04.401Z,97961.28
2022-11-13T13:04:49.737Z,97953.03
2022-11-13T13:07:38.468Z,97952.06
2022-11-13T13:10:18.418Z,97951.06
2022-11-13T13:12:58.879Z,97948.25
2022-11-13T13:15:36.402Z,97942.50
2022-11-13T13:18:13.714Z,97940.56
2022-11-13T13:20:47.202Z,97938.56
2022-11-13T13:23:27.881Z,97944.56
2022-11-13T13:26:08.235Z,97941.63
2022-11-13T13:28:41.505Z,97932.66
2022-11-13T13:31:24.749Z,97929.84
2022-11-13T13:34:19.806Z,97920.66
2022-11-13T13:36:56.257Z,97920.22
2022-11-13T13:39:38.789Z,97917.41
2022-11-13T13:42:28.651Z,97926.06
2022-11-13T13:45:25.537Z,97936.22
2022-11-13T13:47:56.896Z,97932.44
2022-11-13T13:50:33.318Z,97932.28
2022-11-13T13:53:03.396Z,97918.16
2022-11-13T13:55:36.600Z,97910.75
2022-11-13T13:58:10.713Z,97912.09
2022-11-13T14:00:59.000Z,97907.03
2022-11-13T14:03:31.098Z,97909.06
2022-11-13T14:06:19.086Z,97916.75
2022-11-13T14:08:48.412Z,97903.97
2022-11-13T14:11:20.350Z,97902.84
2022-11-13T14:13:48.744Z,97902.00
2022-11-13T14:16:17.047Z,97900.03
2022-11-13T14:18:45.611Z,97893.88
2022-11-13T14:21:18.230Z,97893.47
2022-11-13T14:23:50.560Z,97901.00
2022-11-13T14:26:21.359Z,97896.69
2022-11-13T14:28:56.468Z,97893.88
2022-11-13T14:31:30.006Z,97877.31
2022-11-13T14:34:01.917Z,97875.72
2022-11-13T14:36:35.348Z,97875.09
2022-11-13T14:39:04.135Z,97880.66
2022-11-13T14:41:37.147Z,97880.19
2022-11-13T14:44:06.203Z,97881.22
2022-11-13T14:46:38.076Z,97868.63
2022-11-13T14:49:16.066Z,97864.97
2022-11-13T14:51:56.703Z,97870.59
2022-11-13T14:54:53.280Z,97877.56
2022-11-13T14:57:20.679Z,97875.59
2022-11-13T14:59:48.910Z,97875.13
2022-11-13T15:02:17.189Z,97867.69
2022-11-13T15:04:45.442Z,97873.34
2022-11-13T15:07:30.226Z,97869.34
2022-11-13T15:09:59.575Z,97870.69
2022-11-13T15:12:28.195Z,97867.22
2022-11-13T15:14:56.430Z,97874.19
2022-11-13T15:17:24.817Z,97864.53
2022-11-13T15:19:55.001Z,97864.72
2022-11-13T15:22:27.673Z,97876.84
2022-11-13T15:24:56.784Z,97874.03
2022-11-13T15:27:25.086Z,97864.41
2022-11-13T15:29:53.276Z,97860.72
2022-11-13T15:32:21.537Z,97860.34
2022-11-13T15:34:49.796Z,97858.38
2022-11-13T15:37:18.545Z,97871.00
2022-11-13T15:39:48.202Z,97855.19
2022-11-13T15:42:19.910Z,97857.19
2022-11-13T15:44:48.460Z,97856.34
2022-11-13T15:47:30.979Z,97848.69
2022-11-13T15:50:15.790Z,97856.81
2022-11-13T15:52:47.686Z,97858.28
2022-11-13T15:55:33.108Z,97863.75
2022-11-13T15:58:01.940Z,97857.75
2022-11-13T16:00:30.744Z,97856.25
2022-11-13T16:02:59.339Z,97867.03
2022-11-13T16:05:29.572Z,97864.69
2022-11-13T16:07:58.682Z,97857.03
2022-11-13T16:10:27.124Z,97862.81
2022-11-13T16:12:56.989Z,97869.25
2022-11-13T16:15:25.266Z,97867.06
2022-11-13T16:17:57.212Z,97866.66
2022-11-13T16:20:25.954Z,97863.47
2022-11-13T16:22:54.997Z,97861.28
2022-11-13T16:25:23.940Z,97861.56
2022-11-13T16:27:53.306Z,97861.22
2022-11-13T16:30:25.335Z,97862.50
2022-11-13T16:32:53.649Z,97860.13
2022-11-13T16:35:22.120Z,97847.84
2022-11-13T16:37:50.397Z,97858.78
2022-11-13T16:40:23.122Z,97847.47
2022-11-13T16:42:51.677Z,97846.78
2022-11-13T16:45:22.700Z,97845.09
2022-11-13T16:47:51.553Z,97834.78
2022-11-13T16:50:24.719Z,97835.09
2022-11-13T16:52:53.017Z,97834.28
2022-11-13T16:55:21.353Z,97836.22
2022-11-13T16:57:49.669Z,97833.06
2022-11-13T17:00:20.448Z,97836.84
2022-11-13T17:02:53.563Z,97827.50
2022-11-13T17:05:23.761Z,97828.66
2022-11-13T17:07:52.028Z,97828.81
2022-11-13T17:10:31.241Z,97818.63
2022-11-13T17:13:00.329Z,97822.25
2022-11-13T17:15:28.613Z,97820.59
2022-11-13T17:17:59.858Z,97819.91
2022-11-13T17:20:28.368Z,97816.59
2022-11-13T17:22:56.651Z,97817.56
2022-11-13T17:25:26.775Z,97818.84
2022-11-13T17:27:55.454Z,97816.34
2022-11-13T17:30:23.872Z,97816.50
2022-11-13T17:32:52.152Z,97819.44
2022-11-13T17:35:21.909Z,97821.25
2022-11-13T17:37:50.217Z,97810.94
2022-11-13T17:40:18.738Z,97818.91
2022-11-13T17:42:47.999Z,97812.78
2022-11-13T17:45:16.846Z,97813.75
2022-11-13T17:47:45.102Z,97811.09
2022-11-13T17:50:15.017Z,97817.69
2022-11-13T17:52:44.675Z,97820.34
2022-11-13T17:55:14.106Z,97815.19
2022-11-13T17:57:42.500Z,97817.84
2022-11-13T18:00:12.599Z,97819.66
2022-11-13T18:02:40.841Z,97820.50
2022-11-13T18:05:10.050Z,97816.03
2022-11-13T18:07:40.068Z,97811.69
2022-11-13T18:10:11.863Z,97811.69
2022-11-13T18:12:40.222Z,97812.69
2022-11-13T18:15:09.363Z,97809.03
2022-11-13T18:17:37.666Z,97810.88
2022-11-13T18:20:07.058Z,97812.69
2022-11-13T18:22:35.339Z,97810.19
2022-11-13T18:25:04.200Z,97810.31
2022-11-13T18:27:33.866Z,97809.66
2022-11-13T18:30:02.169Z,97817.94
2022-11-13T18:32:30.395Z,97822.53
2022-11-13T18:34:58.654Z,97806.75
2022-11-13T18:37:26.925Z,97811.53
2022-11-13T18:39:55.190Z,97814.31
2022-11-13T18:42:23.513Z,97809.16
2022-11-13T18:44:53.246Z,97812.09
2022-11-13T18:47:21.888Z,97810.44
2022-11-13T18:49:50.285Z,97805.28
2022-11-13T18:52:18.724Z,97805.56
2022-11-13T18:54:47.039Z,97806.69
2022-11-13T18:57:15.293Z,97806.00
2022-11-13T18:59:43.653Z,97805.28
2022-11-13T19:02:13.928Z,97809.78
2022-11-13T19:04:42.293Z,97813.25
2022-11-13T19:07:12.288Z,97818.56
2022-11-13T19:09:45.675Z,97813.25
2022-11-13T19:12:13.956Z,97812.59
2022-11-13T19:14:42.270Z,97814.41
2022-11-13T19:17:10.919Z,97811.91
2022-11-13T19:19:42.302Z,97805.06
2022-11-13T19:22:10.617Z,97812.34
2022-11-13T19:24:38.907Z,97804.66
2022-11-13T19:27:07.315Z,97803.97
2022-11-13T19:29:35.642Z,97806.25
2022-11-13T19:32:04.059Z,97811.00
2022-11-13T19:34:32.383Z,97802.38
2022-11-13T19:37:02.221Z,97797.50
2022-11-13T19:39:30.635Z,97816.88
2022-11-13T19:41:58.947Z,97807.56
2022-11-13T19:44:27.997Z,97800.59
2022-11-13T19:46:57.391Z,97804.34
2022-11-13T19:49:25.823Z,97805.34
2022-11-13T19:51:55.343Z,97804.50
2022-11-13T19:54:25.027Z,97798.81
2022-11-13T19:56:53.360Z,97799.63
2022-11-13T19:59:21.728Z,97795.59
2022-11-13T20:01:50.139Z,97794.75
2022-11-13T20:04:18.519Z,97790.75
2022-11-13T20:06:46.977Z,97786.00
2022-11-13T20:09:15.377Z,97782.38
2022-11-13T20:11:45.831Z,97781.84
2022-11-13T20:14:14.486Z,97785.78
2022-11-13T20:16:42.789Z,97787.88
2022-11-13T20:19:11.105Z,97786.34
2022-11-13T20:21:40.836Z,97776.84
2022-11-13T20:24:11.448Z,97776.31
2022-11-13T20:26:40.427Z,97779.94
2022-11-13T20:29:10.163Z,97765.88
2022-11-13T20:31:38.494Z,97766.81
2022-11-13T20:34:06.977Z,97771.47
2022-11-13T20:36:35.321Z,97774.38
2022-11-13T20:39:08.976Z,97778.41
2022-11-13T20:41:37.731Z,97773.41
2022-11-13T20:44:06.566Z,97776.19
2022-11-13T20:46:36.504Z,97772.84
2022-11-13T20:49:06.286Z,97766.72
2022-11-13T20:51:34.697Z,97768.69
2022-11-13T20:54:03.004Z,97771.47
2022-11-13T20:56:31.432Z,97767.31
2022-11-13T20:58:59.967Z,97762.97
2022-11-13T21:01:28.299Z,97767.44
2022-11-13T21:03:59.593Z,97768.25
2022-11-13T21:06:28.019Z,97761.16
2022-11-13T21:08:58.052Z,97753.91
2022-11-13T21:11:26.952Z,97764.38
2022-11-13T21:13:57.526Z,97764.38
2022-11-13T21:16:28.101Z,97757.00
2022-11-13T21:19:00.164Z,97759.06
2022-11-13T21:21:29.211Z,97759.34
2022-11-13T21:23:58.895Z,97758.06
2022-11-13T21:26:28.382Z,97758.63
2022-11-13T21:28:57.306Z,97758.50
2022-11-13T21:31:25.836Z,97757.22
2022-11-13T21:33:55.058Z,97762.50
2022-11-13T21:36:27.346Z,97755.69
2022-11-13T21:38:57.051Z,97756.50
2022-11-13T21:41:26.480Z,97767.81
2022-11-13T21:43:59.358Z,97766.81
2022-11-13T21:46:30.254Z,97752.91
2022-11-13T21:49:00.879Z,97743.13
2022-11-13T21:51:31.195Z,97747.59
2022-11-13T21:53:59.833Z,97749.25
2022-11-13T21:56:29.879Z,97750.09
2022-11-13T21:58:58.754Z,97748.13
2022-11-13T22:01:29.031Z,97735.88
2022-11-13T22:03:58.675Z,97740.16
2022-11-13T22:06:31.141Z,97737.38
2022-11-13T22:09:02.124Z,97735.72
2022-11-13T22:11:33.704Z,97737.38
2022-11-13T22:14:02.571Z,97736.41
2022-11-13T22:16:33.278Z,97744.53
2022-11-13T22:19:03.720Z,97731.84
2022-11-13T22:21:33.774Z,97736.84
2022-11-13T22:24:02.580Z,97742.69
2022-11-13T22:26:32.043Z,97738.22
2022-11-13T22:29:01.544Z,97739.38
2022-11-13T22:31:31.668Z,97732.06
2022-11-13T22:34:00.131Z,97739.88
2022-11-13T22:36:31.089Z,97740.72
2022-11-13T22:39:00.996Z,97730.97
2022-11-13T22:41:31.844Z,97733.47
2022-11-13T22:44:02.877Z,97730.69
2022-11-13T22:46:33.509Z,97733.19
2022-11-13T22:49:03.660Z,97721.44
2022-11-13T22:51:37.910Z,97723.09
2022-11-13T22:54:09.952Z,97718.25
2022-11-13T22:56:40.157Z,97716.44
2022-11-13T22:59:12.194Z,97724.38
2022-11-13T23:01:43.648Z,97723.41
2022-11-13T23:04:14.623Z,97726.19
2022-11-13T23:06:43.265Z,97715.59
2022-11-13T23:09:13.015Z,97717.44
2022-11-13T23:11:42.416Z,97722.59
2022-11-13T23:14:15.776Z,97712.66
2022-11-13T23:16:44.289Z,97709.34
2022-11-13T23:19:12.705Z,97701.22
2022-11-13T23:21:40.944Z,97697.88
2022-11-13T23:24:13.021Z,97698.03
2022-11-13T23:26:41.257Z,97687.41
2022-11-13T23:29:09.533Z,97686.44
2022-11-13T23:31:37.812Z,97695.38
2022-11-13T23:34:06.527Z,97684.06
2022-11-13T23:36:34.830Z,97683.56
2022-11-13T23:39:03.192Z,97687.00
2022-11-13T23:41:32.817Z,97684.38
2022-11-13T23:44:09.814Z,97681.03
2022-11-13T23:46:38.206Z,97689.28
2022-11-13T23:49:06.468Z,97688.59
2022-11-13T23:51:34.756Z,97695.56
2022-11-13T23:54:03.204Z,97677.28
2022-11-13T23:56:32.804Z,97687.59
2022-11-13T23:59:01.034Z,97695.69
